Time;durP1;ratioP1;P1;durP2;ratioP2;P2;SDS_P1;SDS_P2;PMS_P1;PMS_P2;Temp;Humidity;BMP_temperature;BMP_pressure;BME280_temperature;BME280_humidity;BME280_pressure;Samples;Min_cycle;Max_cycle;Signal;HPM_P1;HPM_P2
2021/05/25 00:00:21;;;;;;;13.65;3.80;;;12.40;99.90;;;;;;5094647;28;20204;-67
2021/05/25 00:02:48;;;;;;;11.83;3.90;;;12.40;99.90;;;;;;5094772;28;20229;-67
2021/05/25 00:05:17;;;;;;;10.17;3.67;;;12.40;99.90;;;;;;5094702;28;20197;-67
2021/05/25 00:07:43;;;;;;;14.00;3.03;;;12.40;99.90;;;;;;5094555;28;20201;-67
2021/05/25 00:10:11;;;;;;;19.90;4.88;;;12.40;99.90;;;;;;5094404;28;20237;-68
2021/05/25 00:12:38;;;;;;;10.38;3.55;;;12.40;99.90;;;;;;5094810;28;20576;-66
2021/05/25 00:15:07;;;;;;;9.57;3.67;;;12.40;99.90;;;;;;5094604;28;20225;-67
2021/05/25 00:17:34;;;;;;;17.58;4.35;;;12.40;99.90;;;;;;5094474;28;20205;-67
2021/05/25 00:20:00;;;;;;;9.27;4.17;;;12.30;99.90;;;;;;5094038;28;20210;-67
2021/05/25 00:22:27;;;;;;;14.33;4.37;;;12.20;99.90;;;;;;5093674;28;20555;-67
2021/05/25 00:24:53;;;;;;;8.23;3.70;;;12.20;99.90;;;;;;5094507;28;20786;-67
2021/05/25 00:27:20;;;;;;;14.83;3.53;;;12.20;99.90;;;;;;5094384;28;20278;-67
2021/05/25 00:29:47;;;;;;;11.80;3.88;;;12.10;99.90;;;;;;5094230;28;20240;-67
2021/05/25 00:32:13;;;;;;;13.70;4.40;;;12.10;99.90;;;;;;5094072;28;20236;-67
2021/05/25 00:34:40;;;;;;;11.17;3.40;;;11.90;99.90;;;;;;5093985;28;20202;-67
2021/05/25 00:37:06;;;;;;;10.60;4.00;;;11.90;99.90;;;;;;5093955;28;20210;-67
2021/05/25 00:39:33;;;;;;;15.50;4.27;;;11.80;99.90;;;;;;5093904;28;20623;-67
2021/05/25 00:41:59;;;;;;;13.50;3.80;;;11.70;99.90;;;;;;5094080;28;20198;-67
2021/05/25 00:44:26;;;;;;;10.27;3.60;;;11.70;99.90;;;;;;5094169;28;20684;-67
2021/05/25 00:46:53;;;;;;;16.23;4.20;;;11.70;99.90;;;;;;5094312;28;20248;-67
2021/05/25 00:49:20;;;;;;;9.03;4.00;;;11.70;99.90;;;;;;5093709;28;20230;-68
2021/05/25 00:51:47;;;;;;;12.20;4.03;;;11.60;99.90;;;;;;5093697;28;20216;-67
2021/05/25 00:54:13;;;;;;;14.20;3.43;;;11.60;99.90;;;;;;5093922;28;20198;-67
2021/05/25 00:56:40;;;;;;;14.47;4.60;;;11.50;99.90;;;;;;5093813;28;20202;-67
2021/05/25 00:59:07;;;;;;;7.97;3.97;;;11.50;99.90;;;;;;5093529;28;20202;-69
2021/05/25 01:01:34;;;;;;;7.63;2.87;;;11.60;99.90;;;;;;5093649;28;20205;-69
2021/05/25 01:04:01;;;;;;;19.87;4.30;;;11.50;99.90;;;;;;5093570;28;20205;-69
2021/05/25 01:06:28;;;;;;;13.97;3.17;;;11.50;99.90;;;;;;5093644;28;20661;-69
2021/05/25 01:08:57;;;;;;;13.60;4.10;;;11.60;99.90;;;;;;5093893;28;20570;-69
2021/05/25 01:11:24;;;;;;;9.90;3.43;;;11.50;99.90;;;;;;5093433;28;20251;-69
2021/05/25 01:13:52;;;;;;;15.67;3.77;;;11.50;99.90;;;;;;5093143;28;20208;-69
2021/05/25 01:16:21;;;;;;;14.27;4.33;;;11.50;99.90;;;;;;5093347;28;20197;-69
2021/05/25 01:18:48;;;;;;;11.30;4.07;;;11.60;99.90;;;;;;5093303;28;20212;-69
2021/05/25 01:21:16;;;;;;;11.37;4.50;;;11.40;99.90;;;;;;5093367;28;20210;-69
2021/05/25 01:23:43;;;;;;;13.63;3.47;;;11.40;99.90;;;;;;5093250;28;20202;-69
2021/05/25 01:26:11;;;;;;;15.70;5.80;;;11.40;99.90;;;;;;5092882;28;20209;-69
2021/05/25 01:28:38;;;;;;;13.33;4.13;;;11.40;99.90;;;;;;5092961;28;20205;-69
2021/05/25 01:31:05;;;;;;;13.37;4.60;;;11.40;99.90;;;;;;5092838;28;20236;-69
2021/05/25 01:33:36;;;;;;;14.23;4.77;;;11.50;99.90;;;;;;5092661;28;20204;-69
2021/05/25 01:36:04;;;;;;;13.67;4.13;;;11.50;99.90;;;;;;5092684;28;20222;-69
2021/05/25 01:38:31;;;;;;;14.73;3.63;;;11.40;99.90;;;;;;5093134;28;20297;-69
2021/05/25 01:40:58;;;;;;;13.33;3.80;;;11.40;99.90;;;;;;5093178;28;20205;-69
2021/05/25 01:43:25;;;;;;;14.73;4.53;;;11.30;99.90;;;;;;5092892;28;20197;-69
2021/05/25 01:45:52;;;;;;;13.67;4.67;;;11.30;99.90;;;;;;5092597;28;20205;-69
2021/05/25 01:48:19;;;;;;;12.17;4.40;;;11.30;99.90;;;;;;5092844;28;20201;-69
2021/05/25 01:50:45;;;;;;;17.30;4.97;;;11.30;99.90;;;;;;5092441;28;20731;-69
2021/05/25 01:53:14;;;;;;;19.23;4.10;;;11.20;99.90;;;;;;5092717;28;20201;-69
2021/05/25 01:55:43;;;;;;;14.93;5.17;;;11.20;99.90;;;;;;5092626;28;20210;-69
2021/05/25 01:58:13;;;;;;;15.20;4.00;;;11.10;99.90;;;;;;5092431;28;20568;-69
2021/05/25 02:00:41;;;;;;;19.40;5.53;;;11.10;99.90;;;;;;5092417;28;20202;-69
2021/05/25 02:03:07;;;;;;;9.30;3.77;;;11.20;99.90;;;;;;5092594;28;20224;-69
2021/05/25 02:05:35;;;;;;;13.03;4.37;;;11.20;99.90;;;;;;5092624;28;20201;-69
2021/05/25 02:08:02;;;;;;;16.70;4.30;;;11.20;99.90;;;;;;5092711;28;20201;-69
2021/05/25 02:10:31;;;;;;;16.57;4.00;;;11.20;99.90;;;;;;5092426;28;20233;-69
2021/05/25 02:13:00;;;;;;;18.23;4.43;;;11.10;99.90;;;;;;5092388;28;20676;-69
2021/05/25 02:15:28;;;;;;;11.70;4.20;;;11.20;99.90;;;;;;5092117;28;20692;-69
2021/05/25 02:17:55;;;;;;;12.60;4.10;;;11.20;99.90;;;;;;5092158;28;20205;-69
2021/05/25 02:20:22;;;;;;;10.83;3.47;;;11.20;99.90;;;;;;5092282;28;20205;-69
2021/05/25 02:22:49;;;;;;;21.97;5.43;;;11.10;99.90;;;;;;5092064;28;20673;-69
2021/05/25 02:25:15;;;;;;;12.20;4.17;;;11.10;99.90;;;;;;5092102;28;20205;-69
2021/05/25 02:27:42;;;;;;;8.83;3.20;;;11.20;99.90;;;;;;5092032;28;20259;-69
2021/05/25 02:30:09;;;;;;;16.73;3.60;;;11.20;99.90;;;;;;5092030;28;20232;-69
2021/05/25 02:32:36;;;;;;;11.70;4.13;;;11.10;99.90;;;;;;5092075;28;20202;-69
2021/05/25 02:35:05;;;;;;;10.30;3.67;;;11.00;99.90;;;;;;5092220;28;20266;-69
2021/05/25 02:37:31;;;;;;;9.43;3.47;;;11.10;99.90;;;;;;5092129;28;20201;-69
2021/05/25 02:39:59;;;;;;;17.37;4.20;;;11.20;99.90;;;;;;5091746;28;20212;-70
2021/05/25 02:42:25;;;;;;;9.53;3.33;;;11.20;99.90;;;;;;5091861;28;20296;-69
2021/05/25 02:44:53;;;;;;;18.00;5.13;;;11.10;99.90;;;;;;5091203;28;20673;-69
2021/05/25 02:47:19;;;;;;;18.13;4.30;;;11.10;99.90;;;;;;5091742;28;20684;-69
2021/05/25 02:49:47;;;;;;;14.13;3.90;;;11.10;99.90;;;;;;5091725;28;20228;-68
2021/05/25 02:52:14;;;;;;;11.23;3.97;;;11.10;99.90;;;;;;5091668;28;20212;-69
2021/05/25 02:54:41;;;;;;;13.93;4.07;;;11.20;99.90;;;;;;5091507;28;20657;-69
2021/05/25 02:57:08;;;;;;;13.63;4.67;;;11.10;99.90;;;;;;5091893;28;20213;-69
2021/05/25 02:59:35;;;;;;;19.03;5.20;;;11.00;99.90;;;;;;5091970;28;20665;-69
2021/05/25 03:02:01;;;;;;;16.43;3.77;;;11.10;99.90;;;;;;5092080;28;20201;-69
2021/05/25 03:04:28;;;;;;;12.30;3.83;;;11.00;99.90;;;;;;5091695;28;20198;-69
2021/05/25 03:06:56;;;;;;;15.80;3.93;;;11.10;99.90;;;;;;5091551;28;20613;-69
2021/05/25 03:09:23;;;;;;;14.70;3.53;;;11.00;99.90;;;;;;5091417;28;20259;-69
2021/05/25 03:11:50;;;;;;;18.13;4.27;;;11.10;99.90;;;;;;5091846;28;20205;-69
2021/05/25 03:14:16;;;;;;;14.30;5.87;;;11.10;99.90;;;;;;5091460;28;20247;-69
2021/05/25 03:16:43;;;;;;;11.00;3.43;;;11.10;99.90;;;;;;5091573;28;20205;-69
2021/05/25 03:19:11;;;;;;;15.07;3.50;;;11.10;99.90;;;;;;5091536;28;20197;-69
2021/05/25 03:21:37;;;;;;;16.47;3.67;;;11.00;99.90;;;;;;5091354;28;20201;-69
2021/05/25 03:24:06;;;;;;;16.07;3.87;;;11.00;99.90;;;;;;5091565;28;20206;-69
2021/05/25 03:26:32;;;;;;;16.23;3.50;;;11.00;99.90;;;;;;5091204;28;20204;-69
2021/05/25 03:28:58;;;;;;;13.63;3.93;;;11.00;99.90;;;;;;5091347;28;20684;-69
2021/05/25 03:31:25;;;;;;;10.33;3.60;;;10.90;99.90;;;;;;5091238;28;20241;-70
2021/05/25 03:33:51;;;;;;;14.13;4.63;;;10.90;99.90;;;;;;5091358;28;20202;-69
2021/05/25 03:36:18;;;;;;;8.67;3.40;;;10.70;99.90;;;;;;5091345;28;20198;-69
2021/05/25 03:38:44;;;;;;;14.40;4.67;;;10.80;99.90;;;;;;5091507;28;20201;-69
2021/05/25 03:41:12;;;;;;;9.90;3.57;;;10.80;99.90;;;;;;5091245;28;20206;-70
2021/05/25 03:43:38;;;;;;;16.03;3.67;;;10.70;99.90;;;;;;5091344;28;20204;-69
2021/05/25 03:46:04;;;;;;;11.00;3.17;;;10.60;99.90;;;;;;5091546;28;20198;-69
2021/05/25 03:48:31;;;;;;;9.37;4.80;;;10.60;99.90;;;;;;5091369;28;20209;-69
2021/05/25 03:50:57;;;;;;;12.93;3.63;;;10.60;99.90;;;;;;5091037;28;20256;-69
2021/05/25 03:53:25;;;;;;;11.23;3.87;;;10.60;99.90;;;;;;5091362;28;20254;-69
2021/05/25 03:55:53;;;;;;;17.67;4.00;;;10.60;99.90;;;;;;5093048;28;20205;-69
2021/05/25 04:01:06;;;;;;;14.50;4.00;;;10.60;99.90;;;;;;5095311;28;20208;-70
2021/05/25 04:03:34;;;;;;;15.00;4.37;;;10.60;99.90;;;;;;5094660;28;20205;-72
2021/05/25 04:06:01;;;;;;;14.77;5.33;;;10.70;99.90;;;;;;5094588;28;20205;-69
2021/05/25 04:08:27;;;;;;;11.53;4.00;;;10.70;99.90;;;;;;5094796;28;20201;-69
2021/05/25 04:10:53;;;;;;;13.73;4.23;;;10.60;99.90;;;;;;5094601;28;20233;-69
2021/05/25 04:13:21;;;;;;;15.13;4.73;;;10.70;99.90;;;;;;5094606;28;20216;-69
2021/05/25 04:15:50;;;;;;;13.73;4.23;;;10.80;99.90;;;;;;5094564;28;20201;-69
2021/05/25 04:18:17;;;;;;;14.10;4.27;;;10.70;99.90;;;;;;5094607;28;20201;-69
2021/05/25 04:20:44;;;;;;;13.30;3.93;;;10.90;99.90;;;;;;5094296;28;20209;-69
2021/05/25 04:23:10;;;;;;;14.73;4.00;;;10.90;99.90;;;;;;5094425;28;20201;-70
2021/05/25 04:25:37;;;;;;;11.53;4.17;;;11.00;99.90;;;;;;5094428;28;20688;-70
2021/05/25 04:28:04;;;;;;;16.83;3.80;;;11.10;99.90;;;;;;5094144;28;20259;-69
2021/05/25 04:30:32;;;;;;;14.87;3.87;;;11.10;99.90;;;;;;5094028;28;20233;-69
2021/05/25 04:32:58;;;;;;;11.50;3.77;;;11.20;99.90;;;;;;5094304;28;20198;-69
2021/05/25 04:35:25;;;;;;;14.00;4.70;;;11.20;99.90;;;;;;5094322;28;20205;-69
2021/05/25 04:37:52;;;;;;;19.67;5.27;;;11.30;99.90;;;;;;5094125;28;20206;-69
2021/05/25 04:40:19;;;;;;;10.60;3.07;;;11.20;99.90;;;;;;5093912;28;20665;-69
2021/05/25 04:42:46;;;;;;;11.43;3.70;;;11.20;99.90;;;;;;5093954;28;20544;-69
2021/05/25 04:45:13;;;;;;;11.97;3.00;;;11.10;99.90;;;;;;5093889;28;20201;-69
2021/05/25 04:47:41;;;;;;;19.53;5.13;;;11.10;99.90;;;;;;5094124;28;20666;-69
2021/05/25 04:50:09;;;;;;;11.60;3.83;;;11.20;99.90;;;;;;5094101;28;20225;-69
2021/05/25 04:52:36;;;;;;;12.77;3.73;;;11.20;99.90;;;;;;5093841;28;20688;-69
2021/05/25 04:55:04;;;;;;;16.80;3.87;;;11.20;99.90;;;;;;5093715;28;20572;-69
2021/05/25 04:57:31;;;;;;;17.33;4.03;;;11.20;99.90;;;;;;5093583;28;20205;-69
2021/05/25 04:59:58;;;;;;;18.07;4.33;;;11.10;99.90;;;;;;5093751;28;20661;-69
2021/05/25 05:02:24;;;;;;;14.03;4.27;;;11.10;99.90;;;;;;5093721;28;20251;-69
2021/05/25 05:04:52;;;;;;;14.60;4.63;;;11.10;99.90;;;;;;5093614;28;20201;-69
2021/05/25 05:07:18;;;;;;;14.13;4.57;;;11.10;99.90;;;;;;5092905;28;20201;-69
2021/05/25 05:09:45;;;;;;;11.23;3.63;;;11.20;99.90;;;;;;5093414;28;20286;-69
2021/05/25 05:12:11;;;;;;;18.57;4.27;;;11.10;99.90;;;;;;5093632;28;20197;-69
2021/05/25 05:14:38;;;;;;;12.27;4.17;;;11.10;99.90;;;;;;5093753;28;20297;-69
2021/05/25 05:17:05;;;;;;;12.80;3.00;;;11.30;99.90;;;;;;5093419;28;20198;-69
2021/05/25 05:19:31;;;;;;;13.67;4.30;;;11.30;99.90;;;;;;5093312;28;20205;-69
2021/05/25 05:21:58;;;;;;;13.47;4.63;;;11.30;99.90;;;;;;5093153;28;20657;-69
2021/05/25 05:24:25;;;;;;;17.37;4.63;;;11.40;99.90;;;;;;5093070;28;20218;-69
2021/05/25 05:26:51;;;;;;;13.73;4.33;;;11.50;99.90;;;;;;5093056;28;20197;-69
2021/05/25 05:29:18;;;;;;;9.83;4.10;;;11.70;99.90;;;;;;5093070;28;20205;-69
2021/05/25 05:31:45;;;;;;;10.63;3.57;;;11.90;99.90;;;;;;5093260;28;20229;-69
2021/05/25 05:34:13;;;;;;;16.00;5.00;;;12.10;99.90;;;;;;5093402;28;20212;-73
2021/05/25 05:36:40;;;;;;;12.73;3.77;;;12.00;99.90;;;;;;5093160;28;20661;-72
2021/05/25 05:39:07;;;;;;;18.50;3.80;;;12.10;99.90;;;;;;5092812;28;20228;-72
2021/05/25 05:41:34;;;;;;;13.20;3.40;;;12.10;99.90;;;;;;5092757;28;20205;-73
2021/05/25 05:44:00;;;;;;;18.37;4.97;;;12.00;99.90;;;;;;5093025;28;20202;-73
2021/05/25 05:46:27;;;;;;;11.43;4.00;;;12.10;99.90;;;;;;5092651;28;20586;-72
2021/05/25 05:48:54;;;;;;;12.40;3.70;;;12.10;99.90;;;;;;5092735;28;20208;-72
2021/05/25 05:51:22;;;;;;;15.40;3.87;;;12.20;99.90;;;;;;5092578;28;20281;-72
2021/05/25 05:53:49;;;;;;;10.90;3.33;;;12.20;99.90;;;;;;5092559;28;20209;-72
2021/05/25 05:56:17;;;;;;;13.90;5.03;;;12.20;99.90;;;;;;5092738;28;20201;-73
2021/05/25 05:58:44;;;;;;;14.20;3.20;;;12.30;99.90;;;;;;5092790;28;20725;-72
2021/05/25 06:01:11;;;;;;;11.33;4.17;;;12.40;99.90;;;;;;5092786;28;20201;-73
2021/05/25 06:03:38;;;;;;;14.37;3.80;;;12.20;99.90;;;;;;5092466;28;20202;-71
2021/05/25 06:06:05;;;;;;;12.37;3.57;;;12.40;99.90;;;;;;5092345;28;20231;-72
2021/05/25 06:08:31;;;;;;;16.50;4.43;;;12.50;99.90;;;;;;5092290;28;20201;-70
2021/05/25 06:10:58;;;;;;;13.17;4.63;;;12.50;99.90;;;;;;5092403;28;20229;-72
2021/05/25 06:13:25;;;;;;;15.02;3.95;;;12.70;99.90;;;;;;5092454;28;20585;-72
2021/05/25 06:15:55;;;;;;;13.90;3.43;;;12.80;99.90;;;;;;5092148;28;20258;-72
2021/05/25 06:18:22;;;;;;;10.45;3.88;;;12.70;99.90;;;;;;5091542;28;20214;-71
2021/05/25 06:20:48;;;;;;;14.13;3.92;;;12.80;99.90;;;;;;5091983;28;20206;-71
2021/05/25 06:23:15;;;;;;;13.13;4.63;;;12.80;99.90;;;;;;5092513;28;20247;-72
2021/05/25 06:25:42;;;;;;;15.63;4.20;;;12.80;99.90;;;;;;5092179;28;20209;-72
2021/05/25 06:28:10;;;;;;;16.25;3.58;;;12.90;99.90;;;;;;5092157;28;20212;-71
2021/05/25 06:30:38;;;;;;;11.90;4.32;;;12.90;99.90;;;;;;5092007;28;20237;-71
2021/05/25 06:33:05;;;;;;;16.13;5.25;;;12.80;99.90;;;;;;5091972;28;20197;-70
2021/05/25 06:35:32;;;;;;;13.30;4.70;;;12.60;99.90;;;;;;5091885;28;20629;-72
2021/05/25 06:37:59;;;;;;;10.93;4.40;;;12.20;99.90;;;;;;5091825;28;20240;-73
2021/05/25 06:40:26;;;;;;;11.97;3.63;;;12.10;99.90;;;;;;5092007;28;20201;-72
2021/05/25 06:42:53;;;;;;;9.27;2.90;;;12.50;99.90;;;;;;5091811;28;20201;-71
2021/05/25 06:45:19;;;;;;;12.00;4.40;;;12.70;99.90;;;;;;5091920;28;20209;-71
2021/05/25 06:47:47;;;;;;;9.65;3.55;;;12.80;99.90;;;;;;5092205;28;20201;-72
2021/05/25 06:50:15;;;;;;;9.30;2.88;;;13.10;99.90;;;;;;5091955;28;20608;-72
2021/05/25 06:52:42;;;;;;;17.42;4.68;;;13.10;99.90;;;;;;5091887;28;20202;-72
2021/05/25 06:55:11;;;;;;;11.13;3.53;;;13.20;99.90;;;;;;5091644;28;20746;-71
2021/05/25 06:57:37;;;;;;;15.55;4.22;;;13.30;99.90;;;;;;5091737;28;20210;-71
2021/05/25 07:00:06;;;;;;;11.13;4.22;;;13.60;99.90;;;;;;5091669;28;20198;-70
2021/05/25 07:02:32;;;;;;;19.73;3.42;;;14.00;99.90;;;;;;5091531;28;20216;-72
2021/05/25 07:04:59;;;;;;;6.72;3.22;;;13.70;99.90;;;;;;5091595;28;20205;-70
2021/05/25 07:07:26;;;;;;;18.58;3.53;;;14.00;99.90;;;;;;5091782;28;20668;-69
2021/05/25 07:09:52;;;;;;;11.52;2.85;;;14.10;99.90;;;;;;5091564;28;20228;-70
2021/05/25 07:12:19;;;;;;;15.57;4.05;;;14.10;99.90;;;;;;5091663;28;20202;-68
2021/05/25 07:14:46;;;;;;;11.43;3.15;;;14.00;99.90;;;;;;5091686;28;20205;-69
2021/05/25 07:17:12;;;;;;;19.23;4.63;;;14.00;99.90;;;;;;5091372;28;20274;-68
2021/05/25 07:19:39;;;;;;;11.45;3.20;;;14.10;99.90;;;;;;5091614;28;20228;-72
2021/05/25 07:22:06;;;;;;;8.40;2.50;;;14.30;99.90;;;;;;5091268;28;20696;-70
2021/05/25 07:24:33;;;;;;;12.02;3.30;;;14.10;99.90;;;;;;5091347;28;20231;-67
2021/05/25 07:27:00;;;;;;;17.08;4.40;;;14.60;99.90;;;;;;5091366;28;20583;-67
2021/05/25 07:29:27;;;;;;;7.53;3.72;;;14.50;99.90;;;;;;5091347;28;20224;-68
2021/05/25 07:31:53;;;;;;;13.02;3.08;;;14.50;99.90;;;;;;5095070;28;20229;-68
2021/05/25 07:34:20;;;;;;;10.50;3.25;;;14.90;99.90;;;;;;5095767;28;20205;-68
2021/05/25 07:36:47;;;;;;;8.85;3.10;;;14.90;99.90;;;;;;5095309;28;20619;-69
2021/05/25 07:39:15;;;;;;;10.30;3.63;;;14.90;99.90;;;;;;5095310;28;20292;-68
2021/05/25 07:41:43;;;;;;;10.02;2.90;;;15.40;99.90;;;;;;5094866;28;20213;-67
2021/05/25 07:44:09;;;;;;;12.60;3.60;;;15.60;99.90;;;;;;5095013;28;20571;-68
2021/05/25 07:46:36;;;;;;;13.63;4.15;;;15.50;99.90;;;;;;5094867;28;20205;-68
2021/05/25 07:49:03;;;;;;;8.85;3.67;;;15.20;99.90;;;;;;5095236;28;20209;-67
2021/05/25 07:51:30;;;;;;;8.70;2.80;;;15.00;99.90;;;;;;5095021;28;20353;-70
2021/05/25 07:53:57;;;;;;;10.40;3.17;;;15.00;99.90;;;;;;5095139;28;20301;-71
2021/05/25 07:56:25;;;;;;;9.98;2.88;;;14.60;99.90;;;;;;5094902;28;20288;-70
2021/05/25 07:58:53;;;;;;;9.98;3.28;;;17.40;99.90;;;;;;5094998;28;20201;-68
2021/05/25 08:01:19;;;;;;;7.65;2.60;;;17.90;99.90;;;;;;5095197;28;20209;-68
2021/05/25 08:03:46;;;;;;;11.45;2.97;;;19.40;99.90;;;;;;5094677;28;20296;-67
2021/05/25 08:06:13;;;;;;;10.13;3.60;;;19.00;99.90;;;;;;5094719;28;20205;-68
2021/05/25 08:08:39;;;;;;;12.60;3.25;;;17.00;99.90;;;;;;5094713;28;20243;-69
2021/05/25 08:11:11;;;;;;;18.75;4.63;;;16.40;99.90;;;;;;5094460;28;20233;-70
2021/05/25 08:13:39;;;;;;;9.90;3.30;;;16.20;99.90;;;;;;5094616;28;20240;-70
2021/05/25 08:16:06;;;;;;;14.10;2.95;;;16.30;99.90;;;;;;5094673;28;20202;-70
2021/05/25 08:18:45;;;;;;;9.63;3.08;;;16.10;99.90;;;;;;5094424;28;20209;-70
2021/05/25 08:21:11;;;;;;;7.35;2.25;;;16.20;99.90;;;;;;5094179;28;20688;-69
2021/05/25 08:23:38;;;;;;;6.03;2.47;;;17.00;99.90;;;;;;5094333;28;20259;-70
2021/05/25 08:26:05;;;;;;;6.05;2.78;;;16.50;99.90;;;;;;5093886;28;20258;-71
2021/05/25 08:28:32;;;;;;;14.45;2.35;;;16.10;99.90;;;;;;5094151;28;20691;-69
2021/05/25 08:30:59;;;;;;;8.15;2.42;;;17.10;99.90;;;;;;5094314;28;20233;-69
2021/05/25 08:33:26;;;;;;;8.10;2.42;;;16.80;99.90;;;;;;5094241;28;20202;-68
2021/05/25 08:35:52;;;;;;;6.78;2.45;;;16.30;99.90;;;;;;5094408;28;20205;-70
2021/05/25 08:38:21;;;;;;;9.40;2.97;;;17.90;99.90;;;;;;5094355;28;20300;-69
2021/05/25 08:40:49;;;;;;;9.23;3.03;;;17.50;99.90;;;;;;5093895;28;20224;-69
2021/05/25 08:43:16;;;;;;;9.23;1.98;;;17.00;99.90;;;;;;5093280;28;20540;-69
2021/05/25 08:45:43;;;;;;;14.43;2.65;;;17.20;99.90;;;;;;5093873;28;20580;-69
2021/05/25 08:48:11;;;;;;;9.73;2.67;;;17.00;99.90;;;;;;5094038;28;20209;-69
2021/05/25 08:50:38;;;;;;;5.82;2.60;;;17.70;99.90;;;;;;5093775;28;20244;-71
2021/05/25 08:53:05;;;;;;;9.77;2.42;;;19.30;99.90;;;;;;5093625;28;20197;-69
2021/05/25 08:55:34;;;;;;;5.28;2.03;;;19.50;99.90;;;;;;5093797;28;20234;-70
2021/05/25 08:58:01;;;;;;;11.82;2.85;;;19.30;99.90;;;;;;5093635;28;20669;-70
2021/05/25 09:00:28;;;;;;;6.57;2.80;;;20.40;99.90;;;;;;5093916;28;20205;-70
2021/05/25 09:02:56;;;;;;;5.45;2.55;;;19.10;99.90;;;;;;5093925;28;20197;-71
2021/05/25 09:05:24;;;;;;;8.23;2.65;;;18.20;99.90;;;;;;5093712;28;20209;-70
2021/05/25 09:07:52;;;;;;;8.65;2.30;;;18.40;99.90;;;;;;5093802;28;20213;-71
2021/05/25 09:10:20;;;;;;;11.05;2.95;;;20.00;99.90;;;;;;5093293;28;20225;-70
2021/05/25 09:12:49;;;;;;;10.95;2.65;;;20.30;99.90;;;;;;5093291;28;20216;-70
2021/05/25 09:15:29;;;;;;;8.50;2.55;;;18.60;99.90;;;;;;5093260;28;20206;-71
2021/05/25 09:18:02;;;;;;;9.82;1.98;;;17.50;99.90;;;;;;5093435;28;20323;-70
2021/05/25 09:20:46;;;;;;;8.48;2.85;;;17.10;99.90;;;;;;5093093;28;20205;-69
2021/05/25 09:23:14;;;;;;;8.13;1.75;;;17.10;99.90;;;;;;5093254;28;20204;-70
2021/05/25 09:25:52;;;;;;;9.32;2.65;;;18.60;99.90;;;;;;5093108;28;20217;-72
2021/05/25 09:28:20;;;;;;;6.30;2.55;;;20.60;99.90;;;;;;5093132;28;20197;-70
2021/05/25 09:30:48;;;;;;;5.50;1.52;;;19.50;99.90;;;;;;5092940;28;20225;-70
2021/05/25 09:33:15;;;;;;;8.15;2.65;;;19.80;99.90;;;;;;5093107;28;20212;-70
2021/05/25 09:35:47;;;;;;;8.60;2.42;;;18.40;99.90;;;;;;5093206;28;20201;-72
2021/05/25 09:38:15;;;;;;;9.50;2.20;;;17.40;99.90;;;;;;5092957;28;20206;-70
2021/05/25 09:40:43;;;;;;;4.97;2.53;;;17.40;99.90;;;;;;5092836;28;20201;-71
2021/05/25 09:43:15;;;;;;;8.63;2.65;;;18.20;99.90;;;;;;5092814;28;20205;-70
2021/05/25 09:46:02;;;;;;;4.28;2.22;;;19.50;99.90;;;;;;5092901;28;20208;-69
2021/05/25 09:48:31;;;;;;;8.70;2.88;;;19.30;99.90;;;;;;5092699;28;20296;-68
2021/05/25 09:50:58;;;;;;;6.40;1.70;;;20.00;99.90;;;;;;5092799;28;20739;-69
2021/05/25 09:53:28;;;;;;;8.40;2.58;;;21.10;99.90;;;;;;5092657;28;20206;-71
2021/05/25 09:55:56;;;;;;;9.63;2.67;;;20.70;99.90;;;;;;5092863;28;20296;-71
2021/05/25 09:58:24;;;;;;;8.82;2.53;;;21.30;99.90;;;;;;5092715;28;20201;-71
2021/05/25 10:00:51;;;;;;;6.40;2.38;;;21.60;99.90;;;;;;5092589;28;20197;-69
2021/05/25 10:03:19;;;;;;;4.70;1.80;;;21.90;99.90;;;;;;5092518;28;20205;-70
2021/05/25 10:05:48;;;;;;;6.50;2.20;;;20.60;99.90;;;;;;5092383;28;20304;-69
2021/05/25 10:08:17;;;;;;;6.45;2.13;;;19.20;99.90;;;;;;5092607;28;20202;-71
2021/05/25 10:10:44;;;;;;;9.70;2.88;;;18.20;99.90;;;;;;5092087;28;20237;-70
2021/05/25 10:13:12;;;;;;;9.95;2.80;;;18.00;99.90;;;;;;5092343;28;20198;-72
2021/05/25 10:15:39;;;;;;;6.40;2.35;;;17.70;99.90;;;;;;5092358;28;20205;-70
2021/05/25 10:20:53;;;;;;;3.60;1.80;;;21.20;99.90;;;;;;5091877;28;20688;-68
2021/05/25 10:23:22;;;;;;;5.18;1.80;;;23.80;99.90;;;;;;5092011;28;20201;-69
2021/05/25 10:25:52;;;;;;;5.72;2.50;;;21.10;99.90;;;;;;5091739;28;20687;-71
2021/05/25 10:28:20;;;;;;;9.05;3.40;;;22.30;99.90;;;;;;5091981;28;20233;-71
2021/05/25 10:30:49;;;;;;;5.80;2.80;;;23.40;99.90;;;;;;5091667;28;20221;-68
2021/05/25 10:33:21;;;;;;;4.30;2.55;;;21.10;99.90;;;;;;5091906;28;20682;-68
2021/05/25 10:35:55;;;;;;;8.07;2.53;;;19.50;99.90;;;;;;5091797;28;20212;-72
2021/05/25 10:38:25;;;;;;;12.23;3.22;;;17.90;99.90;;;;;;5091674;28;20200;-71
2021/05/25 10:40:54;;;;;;;8.10;3.28;;;17.10;99.90;;;;;;5091880;28;20208;-69
2021/05/25 10:43:43;;;;;;;5.32;2.33;;;16.50;99.90;;;;;;5091700;28;20202;-68
2021/05/25 10:46:20;;;;;;;12.20;2.38;;;16.60;99.90;;;;;;5091581;28;20291;-72
2021/05/25 10:49:03;;;;;;;8.38;2.35;;;16.90;99.90;;;;;;5091633;28;20205;-71
2021/05/25 10:52:12;;;;;;;6.53;2.08;;;17.30;99.90;;;;;;5091949;28;20651;-70
2021/05/25 10:54:58;;;;;;;3.03;1.30;;;17.60;99.90;;;;;;5091704;28;20216;-72
2021/05/25 10:57:49;;;;;;;2.10;1.10;;;17.80;99.90;;;;;;5091354;28;20293;-70
2021/05/25 11:00:18;;;;;;;4.22;1.58;;;17.80;99.90;;;;;;5091598;28;20551;-72
2021/05/25 11:02:56;;;;;;;4.10;1.40;;;17.80;99.90;;;;;;5091639;28;20262;-72
2021/05/25 11:05:51;;;;;;;4.00;1.15;;;17.30;99.90;;;;;;5093130;28;20197;-72
2021/05/25 11:08:31;;;;;;;2.80;1.33;;;17.40;99.90;;;;;;5095816;28;20232;-71
2021/05/25 11:11:12;;;;;;;1.63;1.05;;;17.90;99.90;;;;;;5095976;28;20422;-74
2021/05/25 11:13:51;;;;;;;1.88;1.10;;;18.60;99.90;;;;;;5095800;28;20209;-72
2021/05/25 11:16:35;;;;;;;1.58;0.98;;;18.70;99.90;;;;;;5095612;28;20296;-72
2021/05/25 11:24:59;;;;;;;3.33;1.25;;;18.80;99.90;;;;;;5095266;28;20632;-73
2021/05/25 11:27:31;;;;;;;3.47;1.60;;;18.70;99.90;;;;;;5095435;28;20224;-72
2021/05/25 11:30:00;;;;;;;2.53;1.05;;;18.90;99.90;;;;;;5095435;28;20580;-74
2021/05/25 11:32:28;;;;;;;4.00;1.27;;;18.70;99.90;;;;;;5095419;28;20303;-71
2021/05/25 11:34:56;;;;;;;9.75;1.63;;;18.80;99.90;;;;;;5095264;28;20614;-74
2021/05/25 11:37:24;;;;;;;3.65;1.17;;;18.90;99.90;;;;;;5095274;28;20254;-74
2021/05/25 11:39:52;;;;;;;3.63;1.80;;;19.30;99.90;;;;;;5095187;28;20306;-74
2021/05/25 11:42:23;;;;;;;2.72;1.30;;;19.60;99.90;;;;;;5095379;28;20205;-73
2021/05/25 11:44:52;;;;;;;2.35;1.33;;;19.40;99.90;;;;;;5095102;28;20201;-71
2021/05/25 11:47:19;;;;;;;2.35;1.38;;;19.30;99.90;;;;;;5095085;28;20727;-72
2021/05/25 11:49:46;;;;;;;3.08;1.42;;;19.50;99.90;;;;;;5094998;28;20258;-72
2021/05/25 11:52:29;;;;;;;3.35;1.10;;;19.20;99.90;;;;;;5094773;28;20286;-73
2021/05/25 11:54:59;;;;;;;6.05;1.45;;;18.60;99.90;;;;;;5094934;28;20202;-69
2021/05/25 11:57:37;;;;;;;2.78;1.42;;;18.40;99.90;;;;;;5095172;28;20646;-69
2021/05/25 12:00:07;;;;;;;3.13;1.30;;;18.40;99.90;;;;;;5095195;28;20209;-69
2021/05/25 12:02:34;;;;;;;3.40;1.52;;;18.60;99.90;;;;;;5095034;28;20235;-72
2021/05/25 12:05:04;;;;;;;6.80;2.08;;;19.30;99.90;;;;;;5094976;28;20205;-71
2021/05/25 12:07:30;;;;;;;7.15;2.17;;;18.80;99.90;;;;;;5094925;28;20684;-70
2021/05/25 12:09:59;;;;;;;5.28;1.75;;;19.40;99.90;;;;;;5094640;28;20201;-74
2021/05/25 12:12:28;;;;;;;6.40;1.30;;;19.90;99.90;;;;;;5094585;28;20232;-72
2021/05/25 12:14:57;;;;;;;7.00;1.85;;;20.10;99.90;;;;;;5094526;28;20209;-70
2021/05/25 12:17:26;;;;;;;5.07;2.13;;;20.30;99.90;;;;;;5093368;28;20687;-72
2021/05/25 12:19:53;;;;;;;3.40;1.85;;;19.50;99.90;;;;;;5094646;28;20202;-73
2021/05/25 12:22:32;;;;;;;3.08;1.35;;;19.10;99.90;;;;;;5094337;28;20263;-72
2021/05/25 12:25:18;;;;;;;2.05;0.98;;;19.40;99.90;;;;;;5094264;28;20209;-72
2021/05/25 12:27:45;;;;;;;2.45;1.58;;;19.10;99.90;;;;;;5093713;28;20213;-72
2021/05/25 12:30:14;;;;;;;4.35;1.55;;;19.00;99.90;;;;;;5094393;28;20201;-71
2021/05/25 12:32:42;;;;;;;3.42;1.88;;;19.00;99.90;;;;;;5094104;28;20205;-73
2021/05/25 12:35:10;;;;;;;3.50;0.98;;;19.30;99.90;;;;;;5094355;28;20201;-72
2021/05/25 12:37:36;;;;;;;3.85;1.33;;;19.40;99.90;;;;;;5094370;28;20587;-72
2021/05/25 12:40:06;;;;;;;2.53;1.25;;;19.60;99.90;;;;;;5094546;28;20653;-69
2021/05/25 12:42:37;;;;;;;5.53;2.25;;;19.70;99.90;;;;;;5094515;28;20202;-70
2021/05/25 12:45:06;;;;;;;4.13;1.23;;;19.50;99.90;;;;;;5094520;28;20201;-69
2021/05/25 12:47:55;;;;;;;4.65;1.67;;;19.80;99.90;;;;;;5094297;28;20583;-71
2021/05/25 12:50:32;;;;;;;6.72;2.47;;;20.30;99.90;;;;;;5093780;28;20247;-73
2021/05/25 12:53:06;;;;;;;4.22;1.95;;;20.50;99.90;;;;;;5093578;28;20207;-72
2021/05/25 12:55:33;;;;;;;3.47;1.85;;;19.40;99.90;;;;;;5093758;28;20244;-71
2021/05/25 12:58:00;;;;;;;4.75;1.27;;;19.50;99.90;;;;;;5093841;28;20225;-70